Terminal Aerodrome Forecast
Issued by NWS St Louis, MO

Home | Current Version | Previous Version | Text Only | Print | Product List | Glossary On
Versions: 1 2 3 4 5 6 7 8 9 10 11 12 13
759
FTUS43 KLSX 021732
TAFCOU
TAF
KCOU 021732Z 0218/0318 34004KT P6SM SCT200
     FM030600 07004KT P6SM BKN100=

USA.gov is the U.S. government's official web portal to all federal, state and local government web resources and services.